sensor_id;sensor_type;location;lat;lon;timestamp;temperature;humidity
18794;DHT22;29610;49.022;12.114;2024-02-26T00:00:44;2.00;99.90
18794;DHT22;29610;49.022;12.114;2024-02-26T00:03:13;1.90;99.90
18794;DHT22;29610;49.022;12.114;2024-02-26T00:05:41;1.60;99.90
18794;DHT22;29610;49.022;12.114;2024-02-26T00:08:10;1.50;99.90
18794;DHT22;29610;49.022;12.114;2024-02-26T00:10:38;1.30;99.90
18794;DHT22;29610;49.022;12.114;2024-02-26T00:13:06;1.10;99.90
18794;DHT22;29610;49.022;12.114;2024-02-26T00:15:35;0.90;99.90
18794;DHT22;29610;49.022;12.114;2024-02-26T00:18:04;0.80;99.90
18794;DHT22;29610;49.022;12.114;2024-02-26T00:20:33;0.60;99.90
18794;DHT22;29610;49.022;12.114;2024-02-26T00:23:02;0.50;99.90
18794;DHT22;29610;49.022;12.114;2024-02-26T00:25:30;0.40;99.90
18794;DHT22;29610;49.022;12.114;2024-02-26T00:27:59;0.40;99.90
18794;DHT22;29610;49.022;12.114;2024-02-26T00:30:27;0.40;99.90
18794;DHT22;29610;49.022;12.114;2024-02-26T00:32:55;0.40;99.90
18794;DHT22;29610;49.022;12.114;2024-02-26T00:35:25;0.40;99.90
18794;DHT22;29610;49.022;12.114;2024-02-26T00:37:53;0.30;99.90
18794;DHT22;29610;49.022;12.114;2024-02-26T00:40:21;0.30;99.90
18794;DHT22;29610;49.022;12.114;2024-02-26T00:42:49;0.20;99.90
18794;DHT22;29610;49.022;12.114;2024-02-26T00:45:18;0.30;99.90
18794;DHT22;29610;49.022;12.114;2024-02-26T00:47:46;0.20;99.90
18794;DHT22;29610;49.022;12.114;2024-02-26T00:50:16;0.20;99.90
18794;DHT22;29610;49.022;12.114;2024-02-26T00:52:45;0.20;99.90
18794;DHT22;29610;49.022;12.114;2024-02-26T00:55:14;0.20;99.90
18794;DHT22;29610;49.022;12.114;2024-02-26T00:57:42;0.10;99.90
18794;DHT22;29610;49.022;12.114;2024-02-26T01:00:11;0.00;99.90
18794;DHT22;29610;49.022;12.114;2024-02-26T01:02:40;-0.20;99.90
18794;DHT22;29610;49.022;12.114;2024-02-26T01:05:09;-0.60;99.90
18794;DHT22;29610;49.022;12.114;2024-02-26T01:07:38;-0.40;99.90
18794;DHT22;29610;49.022;12.114;2024-02-26T01:10:09;-0.40;99.90
18794;DHT22;29610;49.022;12.114;2024-02-26T01:12:37;-0.30;99.90
18794;DHT22;29610;49.022;12.114;2024-02-26T01:15:06;-0.50;99.90
18794;DHT22;29610;49.022;12.114;2024-02-26T01:17:36;-0.50;99.90
18794;DHT22;29610;49.022;12.114;2024-02-26T01:20:07;-0.60;99.90
18794;DHT22;29610;49.022;12.114;2024-02-26T01:22:36;-0.60;99.90
18794;DHT22;29610;49.022;12.114;2024-02-26T01:25:05;-0.50;99.90
18794;DHT22;29610;49.022;12.114;2024-02-26T01:27:36;-0.50;99.90
18794;DHT22;29610;49.022;12.114;2024-02-26T01:30:05;-0.40;99.90
18794;DHT22;29610;49.022;12.114;2024-02-26T01:32:35;-0.40;99.90
18794;DHT22;29610;49.022;12.114;2024-02-26T01:35:04;-0.40;99.90
18794;DHT22;29610;49.022;12.114;2024-02-26T01:37:36;-0.50;99.90
18794;DHT22;29610;49.022;12.114;2024-02-26T01:40:06;-0.40;99.90
18794;DHT22;29610;49.022;12.114;2024-02-26T01:42:38;-0.50;99.90
18794;DHT22;29610;49.022;12.114;2024-02-26T01:45:12;-0.50;99.90
18794;DHT22;29610;49.022;12.114;2024-02-26T01:47:50;-0.60;99.90
18794;DHT22;29610;49.022;12.114;2024-02-26T01:50:20;-0.70;99.90
18794;DHT22;29610;49.022;12.114;2024-02-26T01:52:50;-0.80;99.90
18794;DHT22;29610;49.022;12.114;2024-02-26T01:55:23;-0.90;99.90
18794;DHT22;29610;49.022;12.114;2024-02-26T01:57:53;-0.90;99.90
18794;DHT22;29610;49.022;12.114;2024-02-26T02:00:22;-0.90;99.90
18794;DHT22;29610;49.022;12.114;2024-02-26T02:02:51;-0.90;99.90
18794;DHT22;29610;49.022;12.114;2024-02-26T02:05:22;-0.80;99.90
18794;DHT22;29610;49.022;12.114;2024-02-26T02:07:50;-0.90;99.90
18794;DHT22;29610;49.022;12.114;2024-02-26T02:10:21;-0.90;99.90
18794;DHT22;29610;49.022;12.114;2024-02-26T02:12:52;-1.00;99.90
18794;DHT22;29610;49.022;12.114;2024-02-26T02:15:20;-1.00;99.90
18794;DHT22;29610;49.022;12.114;2024-02-26T02:17:49;-0.90;99.90
18794;DHT22;29610;49.022;12.114;2024-02-26T02:20:18;-0.90;99.90
18794;DHT22;29610;49.022;12.114;2024-02-26T02:22:47;-0.80;99.90
18794;DHT22;29610;49.022;12.114;2024-02-26T02:25:16;-0.80;99.90
18794;DHT22;29610;49.022;12.114;2024-02-26T02:27:44;-0.80;99.90
18794;DHT22;29610;49.022;12.114;2024-02-26T02:30:13;-0.80;99.90
18794;DHT22;29610;49.022;12.114;2024-02-26T02:32:42;-0.80;99.90
18794;DHT22;29610;49.022;12.114;2024-02-26T02:35:11;-0.80;99.90
18794;DHT22;29610;49.022;12.114;2024-02-26T02:37:39;-0.80;99.90
18794;DHT22;29610;49.022;12.114;2024-02-26T02:40:09;-0.80;99.90
18794;DHT22;29610;49.022;12.114;2024-02-26T02:42:38;-0.80;99.90
18794;DHT22;29610;49.022;12.114;2024-02-26T02:45:06;-0.90;99.90
18794;DHT22;29610;49.022;12.114;2024-02-26T02:47:36;-0.90;99.90
18794;DHT22;29610;49.022;12.114;2024-02-26T02:50:06;-0.90;99.90
18794;DHT22;29610;49.022;12.114;2024-02-26T02:52:34;-0.90;99.90
18794;DHT22;29610;49.022;12.114;2024-02-26T02:55:03;-0.90;99.90
18794;DHT22;29610;49.022;12.114;2024-02-26T02:57:33;-0.90;99.90
18794;DHT22;29610;49.022;12.114;2024-02-26T03:00:01;-0.90;99.90
18794;DHT22;29610;49.022;12.114;2024-02-26T03:02:31;-0.90;99.90
18794;DHT22;29610;49.022;12.114;2024-02-26T03:04:59;-0.90;99.90
18794;DHT22;29610;49.022;12.114;2024-02-26T03:07:27;-0.90;99.90
18794;DHT22;29610;49.022;12.114;2024-02-26T03:09:56;-1.00;99.90
18794;DHT22;29610;49.022;12.114;2024-02-26T03:12:24;-2.00;99.90
18794;DHT22;29610;49.022;12.114;2024-02-26T03:14:56;-1.00;99.90
18794;DHT22;29610;49.022;12.114;2024-02-26T03:17:24;-1.00;99.90
18794;DHT22;29610;49.022;12.114;2024-02-26T03:19:52;-1.00;99.90
18794;DHT22;29610;49.022;12.114;2024-02-26T03:22:21;-1.00;99.90
18794;DHT22;29610;49.022;12.114;2024-02-26T03:24:49;-1.00;99.90
18794;DHT22;29610;49.022;12.114;2024-02-26T03:27:18;-1.00;99.90
18794;DHT22;29610;49.022;12.114;2024-02-26T03:29:46;-1.00;99.90
18794;DHT22;29610;49.022;12.114;2024-02-26T03:32:16;-1.00;99.90
18794;DHT22;29610;49.022;12.114;2024-02-26T03:34:44;-1.00;99.90
18794;DHT22;29610;49.022;12.114;2024-02-26T03:37:12;-1.00;99.90
18794;DHT22;29610;49.022;12.114;2024-02-26T03:39:42;-1.10;99.90
18794;DHT22;29610;49.022;12.114;2024-02-26T03:42:10;-1.10;99.90
18794;DHT22;29610;49.022;12.114;2024-02-26T03:44:38;-1.10;99.90
18794;DHT22;29610;49.022;12.114;2024-02-26T03:47:06;-0.50;99.90
18794;DHT22;29610;49.022;12.114;2024-02-26T03:49:36;-1.10;99.90
18794;DHT22;29610;49.022;12.114;2024-02-26T03:52:05;-1.10;99.90
18794;DHT22;29610;49.022;12.114;2024-02-26T03:54:33;-1.10;99.90
18794;DHT22;29610;49.022;12.114;2024-02-26T03:57:01;-1.10;99.90
18794;DHT22;29610;49.022;12.114;2024-02-26T03:59:30;-1.10;99.90
18794;DHT22;29610;49.022;12.114;2024-02-26T04:01:58;-1.10;99.90
18794;DHT22;29610;49.022;12.114;2024-02-26T04:04:28;-1.10;99.90
18794;DHT22;29610;49.022;12.114;2024-02-26T04:06:58;-1.10;99.90
18794;DHT22;29610;49.022;12.114;2024-02-26T04:09:26;-1.10;99.90
18794;DHT22;29610;49.022;12.114;2024-02-26T04:11:55;-1.10;99.90
18794;DHT22;29610;49.022;12.114;2024-02-26T04:14:23;-1.20;99.90
18794;DHT22;29610;49.022;12.114;2024-02-26T04:16:51;-1.20;99.90
18794;DHT22;29610;49.022;12.114;2024-02-26T04:19:21;-1.20;99.90
18794;DHT22;29610;49.022;12.114;2024-02-26T04:21:49;-1.20;99.90
18794;DHT22;29610;49.022;12.114;2024-02-26T04:24:19;-1.20;99.90
18794;DHT22;29610;49.022;12.114;2024-02-26T04:26:48;-1.30;99.90
18794;DHT22;29610;49.022;12.114;2024-02-26T04:29:16;-1.30;99.90
18794;DHT22;29610;49.022;12.114;2024-02-26T04:31:45;-0.90;99.90
18794;DHT22;29610;49.022;12.114;2024-02-26T04:34:13;-1.30;99.90
18794;DHT22;29610;49.022;12.114;2024-02-26T04:36:42;-1.20;99.90
18794;DHT22;29610;49.022;12.114;2024-02-26T04:39:10;-1.20;99.90
18794;DHT22;29610;49.022;12.114;2024-02-26T04:41:40;-1.20;99.90
18794;DHT22;29610;49.022;12.114;2024-02-26T04:44:08;-1.20;99.90
18794;DHT22;29610;49.022;12.114;2024-02-26T04:46:37;-1.20;99.90
18794;DHT22;29610;49.022;12.114;2024-02-26T04:49:05;-1.30;99.90
18794;DHT22;29610;49.022;12.114;2024-02-26T04:51:34;-1.30;99.90
18794;DHT22;29610;49.022;12.114;2024-02-26T04:54:02;-1.30;99.90
18794;DHT22;29610;49.022;12.114;2024-02-26T04:56:30;-1.30;99.90
18794;DHT22;29610;49.022;12.114;2024-02-26T04:59:00;-1.30;99.90
18794;DHT22;29610;49.022;12.114;2024-02-26T05:01:28;-1.30;99.90
18794;DHT22;29610;49.022;12.114;2024-02-26T05:03:56;-1.30;99.90
18794;DHT22;29610;49.022;12.114;2024-02-26T05:06:25;-1.30;99.90
18794;DHT22;29610;49.022;12.114;2024-02-26T05:08:53;-1.30;99.90
18794;DHT22;29610;49.022;12.114;2024-02-26T05:11:21;-1.40;99.90
18794;DHT22;29610;49.022;12.114;2024-02-26T05:13:49;-0.70;99.90
18794;DHT22;29610;49.022;12.114;2024-02-26T05:16:19;-1.40;99.90
18794;DHT22;29610;49.022;12.114;2024-02-26T05:18:51;-1.30;99.90
18794;DHT22;29610;49.022;12.114;2024-02-26T05:21:19;-1.30;99.90
18794;DHT22;29610;49.022;12.114;2024-02-26T05:23:48;-1.30;99.90
18794;DHT22;29610;49.022;12.114;2024-02-26T05:26:19;-1.30;99.90
18794;DHT22;29610;49.022;12.114;2024-02-26T05:28:49;-1.30;99.90
18794;DHT22;29610;49.022;12.114;2024-02-26T05:31:19;-1.30;99.90
18794;DHT22;29610;49.022;12.114;2024-02-26T05:33:47;-1.30;99.90
18794;DHT22;29610;49.022;12.114;2024-02-26T05:36:19;-1.30;99.90
18794;DHT22;29610;49.022;12.114;2024-02-26T05:38:49;-1.40;99.90
18794;DHT22;29610;49.022;12.114;2024-02-26T05:41:18;-1.40;99.90
18794;DHT22;29610;49.022;12.114;2024-02-26T05:43:50;-1.40;99.90
18794;DHT22;29610;49.022;12.114;2024-02-26T05:46:19;-1.50;99.90
18794;DHT22;29610;49.022;12.114;2024-02-26T05:48:49;-1.50;99.90
18794;DHT22;29610;49.022;12.114;2024-02-26T05:51:19;-1.60;99.90
18794;DHT22;29610;49.022;12.114;2024-02-26T05:53:47;-1.60;99.90
18794;DHT22;29610;49.022;12.114;2024-02-26T05:56:21;-1.60;99.90
18794;DHT22;29610;49.022;12.114;2024-02-26T05:58:50;-1.60;99.90
18794;DHT22;29610;49.022;12.114;2024-02-26T06:01:20;-0.50;99.90
18794;DHT22;29610;49.022;12.114;2024-02-26T06:03:48;-1.60;99.90
18794;DHT22;29610;49.022;12.114;2024-02-26T06:06:17;-1.60;99.90
18794;DHT22;29610;49.022;12.114;2024-02-26T06:08:46;-1.60;99.90
18794;DHT22;29610;49.022;12.114;2024-02-26T06:11:14;-1.60;99.90
18794;DHT22;29610;49.022;12.114;2024-02-26T06:13:42;-1.60;99.90
18794;DHT22;29610;49.022;12.114;2024-02-26T06:16:11;-1.60;99.90
18794;DHT22;29610;49.022;12.114;2024-02-26T06:18:40;-1.60;99.90
18794;DHT22;29610;49.022;12.114;2024-02-26T06:21:09;-1.60;99.90
18794;DHT22;29610;49.022;12.114;2024-02-26T06:23:38;-1.60;99.90
18794;DHT22;29610;49.022;12.114;2024-02-26T06:26:07;-1.60;99.90
18794;DHT22;29610;49.022;12.114;2024-02-26T06:28:36;-1.50;99.90
18794;DHT22;29610;49.022;12.114;2024-02-26T06:31:07;-1.50;99.90
18794;DHT22;29610;49.022;12.114;2024-02-26T06:33:35;-1.40;99.90
18794;DHT22;29610;49.022;12.114;2024-02-26T06:36:06;-1.40;99.90
18794;DHT22;29610;49.022;12.114;2024-02-26T06:38:34;-1.30;99.90
18794;DHT22;29610;49.022;12.114;2024-02-26T06:41:03;-1.30;99.90
18794;DHT22;29610;49.022;12.114;2024-02-26T06:43:31;-1.20;99.90
18794;DHT22;29610;49.022;12.114;2024-02-26T06:45:59;-1.20;99.90
18794;DHT22;29610;49.022;12.114;2024-02-26T06:48:28;-1.10;99.90
18794;DHT22;29610;49.022;12.114;2024-02-26T06:50:56;-1.00;99.90
18794;DHT22;29610;49.022;12.114;2024-02-26T06:53:26;-1.00;99.90
18794;DHT22;29610;49.022;12.114;2024-02-26T06:55:54;-0.90;99.90
18794;DHT22;29610;49.022;12.114;2024-02-26T06:58:22;-0.90;99.90
18794;DHT22;29610;49.022;12.114;2024-02-26T07:00:50;-0.80;99.90
18794;DHT22;29610;49.022;12.114;2024-02-26T07:03:19;-0.70;99.90
18794;DHT22;29610;49.022;12.114;2024-02-26T07:05:49;-0.60;99.90
18794;DHT22;29610;49.022;12.114;2024-02-26T07:08:18;-0.40;99.90
18794;DHT22;29610;49.022;12.114;2024-02-26T07:10:48;-0.30;99.90
18794;DHT22;29610;49.022;12.114;2024-02-26T07:13:16;-0.10;99.90
18794;DHT22;29610;49.022;12.114;2024-02-26T07:15:45;-0.10;99.90
18794;DHT22;29610;49.022;12.114;2024-02-26T07:18:13;0.10;99.90
18794;DHT22;29610;49.022;12.114;2024-02-26T07:20:41;0.10;99.90
18794;DHT22;29610;49.022;12.114;2024-02-26T07:23:09;0.20;99.90
18794;DHT22;29610;49.022;12.114;2024-02-26T07:25:38;0.30;99.90
18794;DHT22;29610;49.022;12.114;2024-02-26T07:28:08;0.40;99.90
18794;DHT22;29610;49.022;12.114;2024-02-26T07:30:36;0.50;99.90
18794;DHT22;29610;49.022;12.114;2024-02-26T07:33:04;0.60;99.90
18794;DHT22;29610;49.022;12.114;2024-02-26T07:35:33;0.70;99.90
18794;DHT22;29610;49.022;12.114;2024-02-26T07:38:03;0.80;99.90
18794;DHT22;29610;49.022;12.114;2024-02-26T07:40:32;0.90;99.90
18794;DHT22;29610;49.022;12.114;2024-02-26T07:43:00;1.00;99.90
18794;DHT22;29610;49.022;12.114;2024-02-26T07:45:29;1.10;99.90
18794;DHT22;29610;49.022;12.114;2024-02-26T07:47:58;1.20;99.90
18794;DHT22;29610;49.022;12.114;2024-02-26T07:50:26;1.30;99.90
18794;DHT22;29610;49.022;12.114;2024-02-26T07:52:54;1.40;99.90
18794;DHT22;29610;49.022;12.114;2024-02-26T07:55:22;1.40;99.90
18794;DHT22;29610;49.022;12.114;2024-02-26T07:57:50;1.50;99.90
18794;DHT22;29610;49.022;12.114;2024-02-26T08:00:19;1.50;99.90
18794;DHT22;29610;49.022;12.114;2024-02-26T08:02:50;1.50;99.90
18794;DHT22;29610;49.022;12.114;2024-02-26T08:05:18;1.70;99.90
18794;DHT22;29610;49.022;12.114;2024-02-26T08:07:46;1.80;99.90
18794;DHT22;29610;49.022;12.114;2024-02-26T08:10:16;2.00;99.90
18794;DHT22;29610;49.022;12.114;2024-02-26T08:12:44;2.10;99.90
18794;DHT22;29610;49.022;12.114;2024-02-26T08:15:13;2.30;99.90
18794;DHT22;29610;49.022;12.114;2024-02-26T08:17:41;2.60;99.90
18794;DHT22;29610;49.022;12.114;2024-02-26T08:20:11;2.80;99.90
18794;DHT22;29610;49.022;12.114;2024-02-26T08:22:40;3.00;99.90
18794;DHT22;29610;49.022;12.114;2024-02-26T08:25:09;3.20;99.90
18794;DHT22;29610;49.022;12.114;2024-02-26T08:27:37;3.40;99.90
18794;DHT22;29610;49.022;12.114;2024-02-26T08:30:07;3.60;99.90
18794;DHT22;29610;49.022;12.114;2024-02-26T08:32:36;3.80;99.90
18794;DHT22;29610;49.022;12.114;2024-02-26T08:35:04;4.00;99.90
18794;DHT22;29610;49.022;12.114;2024-02-26T08:37:34;4.00;99.90
18794;DHT22;29610;49.022;12.114;2024-02-26T08:40:03;5.30;99.90
18794;DHT22;29610;49.022;12.114;2024-02-26T08:42:35;4.20;99.90
18794;DHT22;29610;49.022;12.114;2024-02-26T08:45:04;4.20;99.90
18794;DHT22;29610;49.022;12.114;2024-02-26T08:47:33;4.40;99.90
18794;DHT22;29610;49.022;12.114;2024-02-26T08:50:02;4.50;99.90
18794;DHT22;29610;49.022;12.114;2024-02-26T08:52:31;4.60;99.90
18794;DHT22;29610;49.022;12.114;2024-02-26T08:55:01;4.60;99.90
18794;DHT22;29610;49.022;12.114;2024-02-26T08:57:30;4.70;99.90
18794;DHT22;29610;49.022;12.114;2024-02-26T09:00:00;4.80;99.90
18794;DHT22;29610;49.022;12.114;2024-02-26T09:02:29;4.90;99.90
18794;DHT22;29610;49.022;12.114;2024-02-26T09:04:57;5.00;99.90
18794;DHT22;29610;49.022;12.114;2024-02-26T09:07:25;5.20;99.90
18794;DHT22;29610;49.022;12.114;2024-02-26T09:09:55;5.40;99.90
18794;DHT22;29610;49.022;12.114;2024-02-26T09:12:23;5.60;99.90
18794;DHT22;29610;49.022;12.114;2024-02-26T09:14:52;5.90;99.90
18794;DHT22;29610;49.022;12.114;2024-02-26T09:17:20;6.00;99.10
18794;DHT22;29610;49.022;12.114;2024-02-26T09:19:48;6.00;98.90
18794;DHT22;29610;49.022;12.114;2024-02-26T09:22:16;6.20;98.60
18794;DHT22;29610;49.022;12.114;2024-02-26T09:24:45;6.40;98.20
18794;DHT22;29610;49.022;12.114;2024-02-26T09:27:14;6.60;97.20
18794;DHT22;29610;49.022;12.114;2024-02-26T09:29:43;6.70;96.40
18794;DHT22;29610;49.022;12.114;2024-02-26T09:32:12;6.80;96.20
18794;DHT22;29610;49.022;12.114;2024-02-26T09:34:40;6.90;95.70
18794;DHT22;29610;49.022;12.114;2024-02-26T09:37:09;7.10;95.90
18794;DHT22;29610;49.022;12.114;2024-02-26T09:39:47;7.30;95.60
18794;DHT22;29610;49.022;12.114;2024-02-26T09:42:18;7.50;95.00
18794;DHT22;29610;49.022;12.114;2024-02-26T09:44:50;7.80;94.90
18794;DHT22;29610;49.022;12.114;2024-02-26T09:47:23;7.70;93.50
18794;DHT22;29610;49.022;12.114;2024-02-26T09:49:56;7.70;93.40
18794;DHT22;29610;49.022;12.114;2024-02-26T09:52:26;7.80;93.70
18794;DHT22;29610;49.022;12.114;2024-02-26T09:54:56;8.00;92.30
18794;DHT22;29610;49.022;12.114;2024-02-26T09:57:26;8.10;91.70
18794;DHT22;29610;49.022;12.114;2024-02-26T09:59:56;8.30;91.40
18794;DHT22;29610;49.022;12.114;2024-02-26T10:02:30;8.70;91.50
18794;DHT22;29610;49.022;12.114;2024-02-26T10:05:02;8.90;90.80
18794;DHT22;29610;49.022;12.114;2024-02-26T10:07:35;9.10;90.40
18794;DHT22;29610;49.022;12.114;2024-02-26T10:10:05;9.40;90.50
18794;DHT22;29610;49.022;12.114;2024-02-26T10:12:35;9.70;90.00
18794;DHT22;29610;49.022;12.114;2024-02-26T10:15:04;9.80;88.00
18794;DHT22;29610;49.022;12.114;2024-02-26T10:17:33;9.80;84.90
18794;DHT22;29610;49.022;12.114;2024-02-26T10:20:13;9.90;85.60
18794;DHT22;29610;49.022;12.114;2024-02-26T10:22:44;10.00;85.00
18794;DHT22;29610;49.022;12.114;2024-02-26T10:25:14;9.80;83.50
18794;DHT22;29610;49.022;12.114;2024-02-26T10:27:45;9.80;84.90
18794;DHT22;29610;49.022;12.114;2024-02-26T10:30:19;10.40;83.80
18794;DHT22;29610;49.022;12.114;2024-02-26T10:32:50;10.40;83.10
18794;DHT22;29610;49.022;12.114;2024-02-26T10:35:19;10.40;83.40
18794;DHT22;29610;49.022;12.114;2024-02-26T10:37:49;10.50;82.20
18794;DHT22;29610;49.022;12.114;2024-02-26T10:40:18;10.80;81.70
18794;DHT22;29610;49.022;12.114;2024-02-26T10:42:48;10.70;79.80
18794;DHT22;29610;49.022;12.114;2024-02-26T10:45:16;10.50;81.00
18794;DHT22;29610;49.022;12.114;2024-02-26T10:47:46;10.80;81.10
18794;DHT22;29610;49.022;12.114;2024-02-26T10:50:14;11.10;79.90
18794;DHT22;29610;49.022;12.114;2024-02-26T10:52:43;11.30;81.20
18794;DHT22;29610;49.022;12.114;2024-02-26T10:55:16;11.30;76.50
18794;DHT22;29610;49.022;12.114;2024-02-26T10:57:48;11.30;76.70
18794;DHT22;29610;49.022;12.114;2024-02-26T11:00:20;11.40;75.50
18794;DHT22;29610;49.022;12.114;2024-02-26T11:02:48;11.70;76.20
18794;DHT22;29610;49.022;12.114;2024-02-26T11:05:19;12.00;76.90
18794;DHT22;29610;49.022;12.114;2024-02-26T11:07:49;12.30;77.40
18794;DHT22;29610;49.022;12.114;2024-02-26T11:10:19;12.40;73.80
18794;DHT22;29610;49.022;12.114;2024-02-26T11:12:49;12.40;73.40
18794;DHT22;29610;49.022;12.114;2024-02-26T11:15:20;12.50;73.40
18794;DHT22;29610;49.022;12.114;2024-02-26T11:17:50;12.60;72.70
18794;DHT22;29610;49.022;12.114;2024-02-26T11:20:20;12.80;73.10
18794;DHT22;29610;49.022;12.114;2024-02-26T11:22:49;13.70;71.90
18794;DHT22;29610;49.022;12.114;2024-02-26T11:25:17;12.80;70.40
18794;DHT22;29610;49.022;12.114;2024-02-26T11:27:50;12.80;71.50
18794;DHT22;29610;49.022;12.114;2024-02-26T11:30:22;12.80;71.30
18794;DHT22;29610;49.022;12.114;2024-02-26T11:32:52;12.70;69.00
18794;DHT22;29610;49.022;12.114;2024-02-26T11:35:21;12.70;72.10
18794;DHT22;29610;49.022;12.114;2024-02-26T11:37:54;12.70;70.50
18794;DHT22;29610;49.022;12.114;2024-02-26T11:40:24;12.70;71.00
18794;DHT22;29610;49.022;12.114;2024-02-26T11:42:54;12.70;71.80
18794;DHT22;29610;49.022;12.114;2024-02-26T11:45:47;12.60;72.60
18794;DHT22;29610;49.022;12.114;2024-02-26T11:48:23;12.50;72.10
18794;DHT22;29610;49.022;12.114;2024-02-26T11:50:53;12.20;71.30
18794;DHT22;29610;49.022;12.114;2024-02-26T11:53:24;12.20;72.60
18794;DHT22;29610;49.022;12.114;2024-02-26T11:56:13;11.90;72.40
18794;DHT22;29610;49.022;12.114;2024-02-26T11:59:03;11.90;72.10
18794;DHT22;29610;49.022;12.114;2024-02-26T12:01:44;11.80;72.50
18794;DHT22;29610;49.022;12.114;2024-02-26T12:04:17;11.90;73.30
18794;DHT22;29610;49.022;12.114;2024-02-26T12:06:50;11.90;72.90
18794;DHT22;29610;49.022;12.114;2024-02-26T12:09:35;11.80;72.60
18794;DHT22;29610;49.022;12.114;2024-02-26T12:12:06;11.80;72.90
18794;DHT22;29610;49.022;12.114;2024-02-26T12:14:40;11.90;73.00
18794;DHT22;29610;49.022;12.114;2024-02-26T12:17:20;12.60;74.20
18794;DHT22;29610;49.022;12.114;2024-02-26T12:19:49;12.20;73.20
18794;DHT22;29610;49.022;12.114;2024-02-26T12:22:19;12.30;72.00
18794;DHT22;29610;49.022;12.114;2024-02-26T12:24:47;12.30;72.70
18794;DHT22;29610;49.022;12.114;2024-02-26T12:27:25;12.40;70.30
18794;DHT22;29610;49.022;12.114;2024-02-26T12:29:55;12.30;69.70
18794;DHT22;29610;49.022;12.114;2024-02-26T12:32:23;12.30;69.30
18794;DHT22;29610;49.022;12.114;2024-02-26T12:34:52;12.20;68.70
18794;DHT22;29610;49.022;12.114;2024-02-26T12:37:20;12.30;68.50
18794;DHT22;29610;49.022;12.114;2024-02-26T12:39:49;12.50;70.30
18794;DHT22;29610;49.022;12.114;2024-02-26T12:42:18;12.40;68.80
18794;DHT22;29610;49.022;12.114;2024-02-26T12:44:46;12.40;69.40
18794;DHT22;29610;49.022;12.114;2024-02-26T12:47:16;12.50;69.60
18794;DHT22;29610;49.022;12.114;2024-02-26T12:49:47;12.40;69.10
18794;DHT22;29610;49.022;12.114;2024-02-26T12:52:16;12.60;68.10
18794;DHT22;29610;49.022;12.114;2024-02-26T12:54:44;12.60;69.40
18794;DHT22;29610;49.022;12.114;2024-02-26T12:57:13;12.70;68.70
18794;DHT22;29610;49.022;12.114;2024-02-26T12:59:41;13.00;70.60
18794;DHT22;29610;49.022;12.114;2024-02-26T13:02:10;13.40;69.20
18794;DHT22;29610;49.022;12.114;2024-02-26T13:04:40;13.60;66.90
18794;DHT22;29610;49.022;12.114;2024-02-26T13:07:09;13.90;67.90
18794;DHT22;29610;49.022;12.114;2024-02-26T13:09:38;13.80;67.20
18794;DHT22;29610;49.022;12.114;2024-02-26T13:12:07;14.90;65.70
18794;DHT22;29610;49.022;12.114;2024-02-26T13:14:36;14.90;65.10
18794;DHT22;29610;49.022;12.114;2024-02-26T13:17:05;14.40;63.00
18794;DHT22;29610;49.022;12.114;2024-02-26T13:19:33;14.80;66.00
18794;DHT22;29610;49.022;12.114;2024-02-26T13:22:07;15.10;61.70
18794;DHT22;29610;49.022;12.114;2024-02-26T13:24:36;15.40;61.70
18794;DHT22;29610;49.022;12.114;2024-02-26T13:27:04;15.10;60.00
18794;DHT22;29610;49.022;12.114;2024-02-26T13:29:34;15.00;59.90
18794;DHT22;29610;49.022;12.114;2024-02-26T13:32:03;15.20;60.10
18794;DHT22;29610;49.022;12.114;2024-02-26T13:34:34;15.20;63.00
18794;DHT22;29610;49.022;12.114;2024-02-26T13:37:03;14.80;62.90
18794;DHT22;29610;49.022;12.114;2024-02-26T13:39:33;13.80;66.10
18794;DHT22;29610;49.022;12.114;2024-02-26T13:42:08;13.40;67.00
18794;DHT22;29610;49.022;12.114;2024-02-26T13:44:38;13.40;67.70
18794;DHT22;29610;49.022;12.114;2024-02-26T13:47:08;13.30;68.70
18794;DHT22;29610;49.022;12.114;2024-02-26T13:49:36;13.20;70.00
18794;DHT22;29610;49.022;12.114;2024-02-26T13:52:05;13.10;69.80
18794;DHT22;29610;49.022;12.114;2024-02-26T13:54:34;12.60;70.30
18794;DHT22;29610;49.022;12.114;2024-02-26T13:57:05;12.40;70.80
18794;DHT22;29610;49.022;12.114;2024-02-26T13:59:34;12.00;70.70
18794;DHT22;29610;49.022;12.114;2024-02-26T14:02:02;12.20;72.20
18794;DHT22;29610;49.022;12.114;2024-02-26T14:04:31;11.90;71.50
18794;DHT22;29610;49.022;12.114;2024-02-26T14:06:59;11.90;72.10
18794;DHT22;29610;49.022;12.114;2024-02-26T14:09:28;12.10;71.80
18794;DHT22;29610;49.022;12.114;2024-02-26T14:12:13;12.20;72.10
18794;DHT22;29610;49.022;12.114;2024-02-26T14:14:41;12.50;71.60
18794;DHT22;29610;49.022;12.114;2024-02-26T14:17:09;12.50;72.20
18794;DHT22;29610;49.022;12.114;2024-02-26T14:19:38;12.30;71.20
18794;DHT22;29610;49.022;12.114;2024-02-26T14:22:11;12.30;71.50
18794;DHT22;29610;49.022;12.114;2024-02-26T14:24:39;12.00;73.20
18794;DHT22;29610;49.022;12.114;2024-02-26T14:27:08;12.10;72.20
18794;DHT22;29610;49.022;12.114;2024-02-26T14:29:40;11.90;70.90
18794;DHT22;29610;49.022;12.114;2024-02-26T14:32:09;11.70;72.20
18794;DHT22;29610;49.022;12.114;2024-02-26T14:34:37;11.50;72.00
18794;DHT22;29610;49.022;12.114;2024-02-26T14:37:05;11.30;71.70
18794;DHT22;29610;49.022;12.114;2024-02-26T14:39:34;11.30;73.00
18794;DHT22;29610;49.022;12.114;2024-02-26T14:42:03;11.20;74.00
18794;DHT22;29610;49.022;12.114;2024-02-26T14:44:32;10.90;74.00
18794;DHT22;29610;49.022;12.114;2024-02-26T14:47:01;11.10;75.90
18794;DHT22;29610;49.022;12.114;2024-02-26T14:49:30;10.90;76.10
18794;DHT22;29610;49.022;12.114;2024-02-26T14:51:59;10.80;76.70
18794;DHT22;29610;49.022;12.114;2024-02-26T14:54:30;10.70;77.20
18794;DHT22;29610;49.022;12.114;2024-02-26T14:57:00;10.60;77.60
18794;DHT22;29610;49.022;12.114;2024-02-26T14:59:28;10.40;78.20
18794;DHT22;29610;49.022;12.114;2024-02-26T15:01:58;10.30;78.10
18794;DHT22;29610;49.022;12.114;2024-02-26T15:04:28;10.20;78.60
18794;DHT22;29610;49.022;12.114;2024-02-26T15:06:56;10.10;79.50
18794;DHT22;29610;49.022;12.114;2024-02-26T15:09:25;10.00;80.20
18794;DHT22;29610;49.022;12.114;2024-02-26T15:11:53;9.80;82.20
18794;DHT22;29610;49.022;12.114;2024-02-26T15:14:22;9.60;82.90
18794;DHT22;29610;49.022;12.114;2024-02-26T15:16:51;9.60;83.20
18794;DHT22;29610;49.022;12.114;2024-02-26T15:19:20;9.60;83.50
18794;DHT22;29610;49.022;12.114;2024-02-26T15:21:50;9.60;83.60
18794;DHT22;29610;49.022;12.114;2024-02-26T15:24:18;9.50;84.10
18794;DHT22;29610;49.022;12.114;2024-02-26T15:26:46;9.50;84.50
18794;DHT22;29610;49.022;12.114;2024-02-26T15:29:14;9.40;83.30
18794;DHT22;29610;49.022;12.114;2024-02-26T15:31:42;9.20;82.70
18794;DHT22;29610;49.022;12.114;2024-02-26T15:34:11;9.10;83.30